createdAt,value
2017-11-11T00:00:21.413Z,99.99
2017-11-11T00:01:21.334Z,99.99
2017-11-11T00:02:21.294Z,99.99
2017-11-11T00:03:21.252Z,99.99
2017-11-11T00:04:21.217Z,99.99
2017-11-11T00:05:21.199Z,99.99
2017-11-11T00:06:21.135Z,99.99
2017-11-11T00:07:21.095Z,99.99
2017-11-11T00:08:21.054Z,99.99
2017-11-11T00:09:21.013Z,99.99
2017-11-11T00:10:20.976Z,99.99
2017-11-11T00:11:20.936Z,99.99
2017-11-11T00:12:20.896Z,99.99
2017-11-11T00:13:20.859Z,99.99
2017-11-11T00:14:20.812Z,99.99
2017-11-11T00:15:20.778Z,99.99
2017-11-11T00:16:20.736Z,99.99
2017-11-11T00:17:20.697Z,99.99
2017-11-11T00:18:20.651Z,99.99
2017-11-11T00:19:20.614Z,99.99
2017-11-11T00:20:20.575Z,99.99
2017-11-11T00:21:20.531Z,99.99
2017-11-11T00:22:20.490Z,99.99
2017-11-11T00:23:20.460Z,99.99
2017-11-11T00:24:20.411Z,99.99
2017-11-11T00:25:20.374Z,99.99
2017-11-11T00:26:20.332Z,99.99
2017-11-11T00:27:20.297Z,99.99
2017-11-11T00:28:20.257Z,99.99
2017-11-11T00:29:20.212Z,99.99
2017-11-11T00:30:20.180Z,99.99
2017-11-11T00:31:20.132Z,99.99
2017-11-11T00:32:20.108Z,99.99
2017-11-11T00:33:20.053Z,99.99
2017-11-11T00:34:20.018Z,99.99
2017-11-11T00:35:19.973Z,99.99
2017-11-11T00:36:19.935Z,99.99
2017-11-11T00:37:19.897Z,99.99
2017-11-11T00:38:19.852Z,99.99
2017-11-11T00:39:19.810Z,99.99
2017-11-11T00:40:19.769Z,99.99
2017-11-11T00:41:19.730Z,99.99
2017-11-11T00:42:19.696Z,99.99
2017-11-11T00:43:19.650Z,99.99
2017-11-11T00:44:19.613Z,99.99
2017-11-11T00:45:19.569Z,99.99
2017-11-11T00:46:19.535Z,99.99
2017-11-11T00:47:19.494Z,99.99
2017-11-11T00:48:19.456Z,99.99
2017-11-11T00:49:19.417Z,99.99
2017-11-11T00:50:19.370Z,99.99
2017-11-11T00:51:19.330Z,99.99
2017-11-11T00:52:19.290Z,99.99
2017-11-11T00:53:19.247Z,99.99
2017-11-11T00:54:19.208Z,99.99
2017-11-11T00:55:19.180Z,99.99
2017-11-11T00:56:19.129Z,99.99
2017-11-11T00:57:19.087Z,99.99
2017-11-11T00:58:19.048Z,99.99
2017-11-11T00:59:19.011Z,99.99
2017-11-11T01:00:18.971Z,99.99
2017-11-11T01:01:18.954Z,99.99
2017-11-11T01:02:18.886Z,99.99
2017-11-11T01:03:18.849Z,99.99
2017-11-11T01:04:18.805Z,99.99
2017-11-11T01:05:18.770Z,99.99
2017-11-11T01:06:18.735Z,99.99
2017-11-11T01:07:18.690Z,99.99
2017-11-11T01:08:18.644Z,99.99
2017-11-11T01:09:18.603Z,99.99
2017-11-11T01:10:18.565Z,99.99
2017-11-11T01:11:18.526Z,99.99
2017-11-11T01:12:18.485Z,99.99
2017-11-11T01:13:18.444Z,99.99
2017-11-11T01:14:18.407Z,99.99
2017-11-11T01:15:18.366Z,99.99
2017-11-11T01:16:18.335Z,99.99
2017-11-11T01:17:18.293Z,99.99
2017-11-11T01:18:18.243Z,99.99
2017-11-11T01:19:18.201Z,99.99
2017-11-11T01:20:18.179Z,99.99
2017-11-11T01:21:18.134Z,99.99
2017-11-11T01:22:18.082Z,99.99
2017-11-11T01:23:18.049Z,99.99
2017-11-11T01:24:18.000Z,99.99
2017-11-11T01:25:17.987Z,99.99
2017-11-11T01:26:17.924Z,99.99
2017-11-11T01:27:17.881Z,99.99
2017-11-11T01:28:17.858Z,99.99
2017-11-11T01:29:17.811Z,99.99
2017-11-11T01:30:17.775Z,99.99
2017-11-11T01:31:17.744Z,99.99
2017-11-11T01:32:17.681Z,99.99
2017-11-11T01:33:17.640Z,99.99
2017-11-11T01:34:17.602Z,99.99
2017-11-11T01:35:17.561Z,99.99
2017-11-11T01:36:17.524Z,99.99
2017-11-11T01:37:17.486Z,99.99
2017-11-11T01:38:17.457Z,99.99
2017-11-11T01:39:17.406Z,99.99
2017-11-11T01:40:17.360Z,99.99
2017-11-11T01:41:17.328Z,99.99
2017-11-11T01:42:17.291Z,99.99
2017-11-11T01:43:17.245Z,99.99
2017-11-11T01:44:17.203Z,99.99
2017-11-11T01:45:17.159Z,99.99
2017-11-11T01:46:17.127Z,99.99
2017-11-11T01:47:17.090Z,99.99
2017-11-11T01:48:17.044Z,99.99
2017-11-11T01:49:17.015Z,99.99
2017-11-11T01:50:16.959Z,99.99
2017-11-11T01:51:16.916Z,99.99
2017-11-11T01:52:16.881Z,99.99
2017-11-11T01:53:16.841Z,99.99
2017-11-11T01:54:16.802Z,99.99
2017-11-11T01:55:16.756Z,99.99
2017-11-11T01:56:16.719Z,99.99
2017-11-11T01:57:16.677Z,99.99
2017-11-11T01:58:16.639Z,99.99
2017-11-11T01:59:16.602Z,99.99
2017-11-11T02:00:16.559Z,99.99
2017-11-11T02:01:16.517Z,99.99
2017-11-11T02:02:16.480Z,99.99
2017-11-11T02:03:16.447Z,99.99
2017-11-11T02:04:16.398Z,99.99
2017-11-11T02:05:16.359Z,99.99
2017-11-11T02:06:16.319Z,99.99
2017-11-11T02:07:16.280Z,99.99
2017-11-11T02:08:16.235Z,99.99
2017-11-11T02:09:16.199Z,99.99
2017-11-11T02:10:16.154Z,99.99
2017-11-11T02:11:16.120Z,99.99
2017-11-11T02:12:16.080Z,99.99
2017-11-11T02:13:16.037Z,99.99
2017-11-11T02:14:16.000Z,99.99
2017-11-11T02:15:15.952Z,99.99
2017-11-11T02:16:15.914Z,99.99
2017-11-11T02:17:15.877Z,99.99
2017-11-11T02:18:15.836Z,99.99
2017-11-11T02:19:15.798Z,99.99
2017-11-11T02:20:15.751Z,99.99
2017-11-11T02:21:15.711Z,99.99
2017-11-11T02:22:15.669Z,99.99
2017-11-11T02:23:15.634Z,99.99
2017-11-11T02:24:15.600Z,99.99
2017-11-11T02:25:15.564Z,99.99
2017-11-11T02:26:15.517Z,99.99
2017-11-11T02:27:15.471Z,99.99
2017-11-11T02:28:15.435Z,99.99
2017-11-11T02:29:15.393Z,99.99
2017-11-11T02:30:15.355Z,99.99
2017-11-11T02:31:15.310Z,99.99
2017-11-11T02:32:15.269Z,99.99
2017-11-11T02:33:15.245Z,99.99
2017-11-11T02:34:15.195Z,99.99
2017-11-11T02:35:15.166Z,99.99
2017-11-11T02:36:15.110Z,99.99
2017-11-11T02:37:15.073Z,99.99
2017-11-11T02:38:15.034Z,99.99
2017-11-11T02:39:14.987Z,99.99
2017-11-11T02:40:14.948Z,99.99
2017-11-11T02:41:14.908Z,99.99
2017-11-11T02:42:14.875Z,99.99
2017-11-11T02:43:14.831Z,99.99
2017-11-11T02:44:14.785Z,99.99
2017-11-11T02:45:14.750Z,99.99
2017-11-11T02:46:14.707Z,99.99
2017-11-11T02:47:14.666Z,99.99
2017-11-11T02:48:14.627Z,99.99
2017-11-11T02:49:14.587Z,99.99
2017-11-11T02:50:14.547Z,99.99
2017-11-11T02:51:14.506Z,99.99
2017-11-11T02:52:14.468Z,99.99
2017-11-11T02:53:14.437Z,99.99
2017-11-11T02:54:14.396Z,99.99
2017-11-11T02:55:14.344Z,99.99
2017-11-11T02:56:14.302Z,99.99
2017-11-11T02:57:14.263Z,99.99
2017-11-11T02:58:14.233Z,99.99
2017-11-11T02:59:14.192Z,99.99
2017-11-11T03:00:14.144Z,99.99
2017-11-11T03:01:14.108Z,99.99
2017-11-11T03:02:14.061Z,99.99
2017-11-11T03:03:14.027Z,99.99
2017-11-11T03:04:13.981Z,99.99
2017-11-11T03:05:13.947Z,99.99
2017-11-11T03:06:13.901Z,99.99
2017-11-11T03:07:13.864Z,99.99
2017-11-11T03:08:13.826Z,99.99
2017-11-11T03:09:13.787Z,99.99
2017-11-11T03:10:13.745Z,99.99
2017-11-11T03:11:13.700Z,99.99
2017-11-11T03:12:13.660Z,99.99
2017-11-11T03:13:13.621Z,99.99
2017-11-11T03:14:13.582Z,99.99
2017-11-11T03:15:13.545Z,99.99
2017-11-11T03:16:13.499Z,99.99
2017-11-11T03:17:13.480Z,99.99
2017-11-11T03:18:13.446Z,99.99
2017-11-11T03:19:13.377Z,99.99
2017-11-11T03:20:13.347Z,99.99
2017-11-11T03:21:13.307Z,99.99
2017-11-11T03:22:13.262Z,99.99
2017-11-11T03:23:13.219Z,99.99
2017-11-11T03:24:13.178Z,99.99
2017-11-11T03:25:13.138Z,99.99
2017-11-11T03:26:13.106Z,99.99
2017-11-11T03:27:13.058Z,99.99
2017-11-11T03:28:13.020Z,99.99
2017-11-11T03:29:12.978Z,99.99
2017-11-11T03:30:12.935Z,99.99
2017-11-11T03:31:12.908Z,99.99
2017-11-11T03:32:12.873Z,99.99
2017-11-11T03:33:12.823Z,99.99
2017-11-11T03:34:12.785Z,99.99
2017-11-11T03:35:12.738Z,99.99
2017-11-11T03:36:12.697Z,99.99
2017-11-11T03:37:12.670Z,99.99
2017-11-11T03:38:12.621Z,99.99
2017-11-11T03:39:12.614Z,99.99
2017-11-11T03:40:12.540Z,99.99
2017-11-11T03:41:12.496Z,99.99
2017-11-11T03:42:12.456Z,99.99
2017-11-11T03:43:12.419Z,99.99
2017-11-11T03:44:12.384Z,99.99
2017-11-11T03:45:12.337Z,99.99
2017-11-11T03:46:12.295Z,99.99
2017-11-11T03:47:12.262Z,99.99
2017-11-11T03:48:12.215Z,99.99
2017-11-11T03:49:12.176Z,99.99
2017-11-11T03:50:12.135Z,99.99
2017-11-11T03:51:12.094Z,99.99
2017-11-11T03:52:12.057Z,99.99
2017-11-11T03:53:12.017Z,99.99
2017-11-11T03:54:11.973Z,99.99
2017-11-11T03:55:11.939Z,99.99
2017-11-11T03:56:11.896Z,99.99
2017-11-11T03:57:11.864Z,99.99
2017-11-11T03:58:11.824Z,99.99
2017-11-11T03:59:11.772Z,99.99
2017-11-11T04:00:11.749Z,99.99
2017-11-11T04:01:11.696Z,99.99
2017-11-11T04:02:11.658Z,99.99
2017-11-11T04:03:11.619Z,99.99
2017-11-11T04:04:11.572Z,99.99
2017-11-11T04:05:11.532Z,99.99
2017-11-11T04:06:11.529Z,99.99
2017-11-11T04:07:11.463Z,99.99
2017-11-11T04:08:11.423Z,99.99
2017-11-11T04:09:11.374Z,99.99
2017-11-11T04:10:11.331Z,99.99
2017-11-11T04:11:11.295Z,99.99
2017-11-11T04:12:11.255Z,99.99
2017-11-11T04:13:11.230Z,99.99
2017-11-11T04:14:11.171Z,99.99
2017-11-11T04:15:11.161Z,99.99
2017-11-11T04:16:11.093Z,99.99
2017-11-11T04:17:11.062Z,99.99
2017-11-11T04:18:11.011Z,99.99
2017-11-11T04:19:10.972Z,99.99
2017-11-11T04:20:10.938Z,99.99
2017-11-11T04:21:10.891Z,99.99
2017-11-11T04:22:10.852Z,99.99
2017-11-11T04:23:10.814Z,99.99
2017-11-11T04:24:10.771Z,99.99
2017-11-11T04:25:10.735Z,99.99
2017-11-11T04:26:10.696Z,99.99
2017-11-11T04:27:10.655Z,99.99
2017-11-11T04:28:10.612Z,99.99
2017-11-11T04:29:10.581Z,99.99
2017-11-11T04:30:10.532Z,99.99
2017-11-11T04:31:10.490Z,99.99
2017-11-11T04:32:10.467Z,99.99
2017-11-11T04:33:10.408Z,99.99
2017-11-11T04:34:10.370Z,99.99
2017-11-11T04:35:10.329Z,99.99
2017-11-11T04:36:10.291Z,99.99
2017-11-11T04:37:10.260Z,99.99
2017-11-11T04:38:10.208Z,99.99
2017-11-11T04:39:10.170Z,99.99
2017-11-11T04:40:10.132Z,99.99
2017-11-11T04:41:10.102Z,99.99
2017-11-11T04:42:10.055Z,99.99
2017-11-11T04:43:10.008Z,99.99
2017-11-11T04:44:09.969Z,99.99
2017-11-11T04:45:09.932Z,99.99
2017-11-11T04:46:09.885Z,99.99
2017-11-11T04:47:09.849Z,99.99
2017-11-11T04:48:09.815Z,99.99
2017-11-11T04:49:09.777Z,99.99
2017-11-11T04:50:09.737Z,99.99
2017-11-11T04:51:09.695Z,99.99
2017-11-11T04:52:09.666Z,99.99
2017-11-11T04:53:09.608Z,99.99
2017-11-11T04:54:09.565Z,99.99
2017-11-11T04:55:09.527Z,99.99
2017-11-11T04:56:09.500Z,99.99
2017-11-11T04:57:09.445Z,99.99
2017-11-11T04:58:09.408Z,99.99
2017-11-11T04:59:09.366Z,99.99
2017-11-11T05:00:09.326Z,99.99
2017-11-11T05:01:09.297Z,99.99
2017-11-11T05:02:09.259Z,99.99
2017-11-11T05:03:09.207Z,99.99
2017-11-11T05:04:09.166Z,99.99
2017-11-11T05:05:09.131Z,99.99
2017-11-11T05:06:09.093Z,99.99
2017-11-11T05:07:09.048Z,99.99
2017-11-11T05:08:09.022Z,99.99
2017-11-11T05:09:08.965Z,99.99
2017-11-11T05:10:08.925Z,99.99
2017-11-11T05:11:08.891Z,99.99
2017-11-11T05:12:08.844Z,99.99
2017-11-11T05:13:08.805Z,99.99
2017-11-11T05:14:08.770Z,99.99
2017-11-11T05:15:08.724Z,99.99
2017-11-11T05:16:08.684Z,99.99
2017-11-11T05:17:08.644Z,99.99
2017-11-11T05:18:08.602Z,99.99
2017-11-11T05:19:08.563Z,99.99
2017-11-11T05:20:08.528Z,99.99
2017-11-11T05:21:08.494Z,99.99
2017-11-11T05:22:08.441Z,99.99
2017-11-11T05:23:08.402Z,99.99
2017-11-11T05:24:08.362Z,99.99
2017-11-11T05:25:08.323Z,99.99
2017-11-11T05:26:08.290Z,99.99
2017-11-11T05:27:08.247Z,99.99
2017-11-11T05:28:08.209Z,99.99
2017-11-11T05:29:08.163Z,99.99
2017-11-11T05:30:08.122Z,99.99
2017-11-11T05:31:08.093Z,99.99
2017-11-11T05:32:08.043Z,99.99
2017-11-11T05:33:08.001Z,99.99
2017-11-11T05:34:07.961Z,99.99
2017-11-11T05:35:07.921Z,99.99
2017-11-11T05:36:07.887Z,99.99
2017-11-11T05:37:07.842Z,99.02
2017-11-11T05:38:07.807Z,99.99
2017-11-11T05:39:07.767Z,99.99
2017-11-11T05:40:07.720Z,98.64
2017-11-11T05:41:07.686Z,99.99
2017-11-11T05:42:07.650Z,99.99
2017-11-11T05:43:07.599Z,99.99
2017-11-11T05:44:07.564Z,99.99
2017-11-11T05:45:07.519Z,99.99
2017-11-11T05:46:07.496Z,99.99
2017-11-11T05:47:07.440Z,99.99
2017-11-11T05:48:07.398Z,99.99
2017-11-11T05:49:07.371Z,99.68
2017-11-11T05:50:07.328Z,99.99
2017-11-11T05:51:07.284Z,99.99
2017-11-11T05:52:07.238Z,99.99
2017-11-11T05:53:07.198Z,99.99
2017-11-11T05:54:07.173Z,99.99
2017-11-11T05:55:07.126Z,99.99
2017-11-11T05:56:07.075Z,99.99
2017-11-11T05:57:07.036Z,99.99
2017-11-11T05:58:06.997Z,99.99
2017-11-11T05:59:06.956Z,99.99
2017-11-11T06:00:06.922Z,99.99
2017-11-11T06:01:06.894Z,99.99
2017-11-11T06:02:06.847Z,99.99
2017-11-11T06:03:06.801Z,99.99
2017-11-11T06:04:06.764Z,99.99
2017-11-11T06:05:06.718Z,99.99
2017-11-11T06:06:06.675Z,99.99
2017-11-11T06:07:06.640Z,99.99
2017-11-11T06:08:06.607Z,99.99
2017-11-11T06:09:06.565Z,99.99
2017-11-11T06:10:06.541Z,99.99
2017-11-11T06:11:06.476Z,99.99
2017-11-11T06:12:06.445Z,99.99
2017-11-11T06:13:06.406Z,99.99
2017-11-11T06:14:06.370Z,99.99
2017-11-11T06:15:06.322Z,99.99
2017-11-11T06:16:06.280Z,99.99
2017-11-11T06:17:06.233Z,99.99
2017-11-11T06:18:06.201Z,99.99
2017-11-11T06:19:06.156Z,99.99
2017-11-11T06:20:06.119Z,99.99
2017-11-11T06:21:06.079Z,99.99
2017-11-11T06:22:06.053Z,99.99
2017-11-11T06:23:05.997Z,99.99
2017-11-11T06:24:05.963Z,99.99
2017-11-11T06:25:05.917Z,99.99
2017-11-11T06:26:05.874Z,99.99
2017-11-11T06:27:05.847Z,99.99
2017-11-11T06:28:05.801Z,97.69
2017-11-11T06:29:05.760Z,99.02
2017-11-11T06:30:05.713Z,99.58
2017-11-11T06:31:05.671Z,97.97
2017-11-11T06:32:05.640Z,94.93
2017-11-11T06:33:05.608Z,92.75
2017-11-11T06:34:05.553Z,92.75
2017-11-11T06:35:05.516Z,93.23
2017-11-11T06:36:05.482Z,95.60
2017-11-11T06:37:05.431Z,92.28
2017-11-11T06:38:05.389Z,90.76
2017-11-11T06:39:05.373Z,91.04
2017-11-11T06:40:05.318Z,88.76
2017-11-11T06:41:05.279Z,89.53
2017-11-11T06:42:05.232Z,91.61
2017-11-11T06:43:05.214Z,90.09
2017-11-11T06:44:05.150Z,89.72
2017-11-11T06:45:05.131Z,88.01
2017-11-11T06:46:05.096Z,92.28
2017-11-11T06:47:05.049Z,87.82
2017-11-11T06:48:04.992Z,85.91
2017-11-11T06:49:04.948Z,87.43
2017-11-11T06:50:04.908Z,85.44
2017-11-11T06:51:04.866Z,87.20
2017-11-11T06:52:04.831Z,85.53
2017-11-11T06:53:04.788Z,85.78
2017-11-11T06:54:04.744Z,85.06
2017-11-11T06:55:04.703Z,84.78
2017-11-11T06:56:04.669Z,87.82
2017-11-11T06:57:04.625Z,87.34
2017-11-11T06:58:04.587Z,85.06
2017-11-11T06:59:04.546Z,84.30
2017-11-11T07:00:04.504Z,84.68
2017-11-11T07:01:04.467Z,82.88
2017-11-11T07:02:04.425Z,85.06
2017-11-11T07:03:04.382Z,82.88
2017-11-11T07:04:04.343Z,82.50
2017-11-11T07:05:04.304Z,86.11
2017-11-11T07:06:04.267Z,83.36
2017-11-11T07:07:04.223Z,87.24
2017-11-11T07:08:04.281Z,89.05
2017-11-11T07:09:04.143Z,87.24
2017-11-11T07:10:04.105Z,86.49
2017-11-11T07:11:04.073Z,87.15
2017-11-11T07:12:04.024Z,85.72
2017-11-11T07:13:03.984Z,84.68
2017-11-11T07:14:03.939Z,86.68
2017-11-11T07:15:03.900Z,87.91
2017-11-11T07:16:03.861Z,85.82
2017-11-11T07:17:03.830Z,88.10
2017-11-11T07:18:03.800Z,88.20
2017-11-11T07:19:03.764Z,85.91
2017-11-11T07:20:03.704Z,87.34
2017-11-11T07:21:03.657Z,88.76
2017-11-11T07:22:03.622Z,89.90
2017-11-11T07:23:03.586Z,88.95
2017-11-11T07:24:44.140Z,90.47
2017-11-11T07:25:44.105Z,90.99
2017-11-11T07:27:36.915Z,93.37
2017-11-11T07:28:36.854Z,91.66
2017-11-11T07:30:29.678Z,92.04
2017-11-11T07:31:29.632Z,94.70
2017-11-11T07:33:22.452Z,94.32
2017-11-11T07:34:22.395Z,95.75
2017-11-11T07:36:15.321Z,95.36
2017-11-11T07:37:15.162Z,95.46
2017-11-11T07:39:08.003Z,93.84
2017-11-11T07:40:07.957Z,94.27
2017-11-11T07:42:00.772Z,95.17
2017-11-11T07:43:00.724Z,95.08
2017-11-11T07:44:53.556Z,94.32
2017-11-11T07:45:53.496Z,96.41
2017-11-11T07:47:46.314Z,96.79
2017-11-11T07:48:46.279Z,94.42
2017-11-11T07:50:39.095Z,98.02
2017-11-11T07:51:39.053Z,98.31
2017-11-11T07:53:31.859Z,99.99
2017-11-11T07:54:31.816Z,96.98
2017-11-11T07:56:24.657Z,96.22
2017-11-11T07:57:24.602Z,96.31
2017-11-11T07:59:17.409Z,97.55
2017-11-11T08:00:17.371Z,99.99
2017-11-11T08:02:10.227Z,99.83
2017-11-11T08:03:10.142Z,99.44
2017-11-11T08:05:02.942Z,99.64
2017-11-11T08:06:02.901Z,99.99
2017-11-11T08:07:55.766Z,99.99
2017-11-11T08:08:55.687Z,99.99
2017-11-11T08:10:48.500Z,99.99
2017-11-11T08:11:48.480Z,99.99
2017-11-11T08:13:41.281Z,99.99
2017-11-11T08:14:41.228Z,99.99
2017-11-11T08:16:34.045Z,99.99
2017-11-11T08:17:34.004Z,99.99
2017-11-11T08:19:26.856Z,99.99
2017-11-11T08:20:26.807Z,99.97
2017-11-11T08:22:19.597Z,99.99
2017-11-11T08:23:19.550Z,99.99
2017-11-11T08:25:12.408Z,98.31
2017-11-11T08:26:12.343Z,99.99
2017-11-11T08:28:05.154Z,99.99
2017-11-11T08:29:05.111Z,99.99
2017-11-11T08:30:57.952Z,99.99
2017-11-11T08:31:57.896Z,99.99
2017-11-11T08:33:50.708Z,96.88
2017-11-11T08:34:50.661Z,97.36
2017-11-11T08:36:43.480Z,98.50
2017-11-11T08:37:43.423Z,97.78
2017-11-11T08:39:36.254Z,99.99
2017-11-11T08:40:36.250Z,99.99
2017-11-11T08:42:29.050Z,99.99
2017-11-11T08:43:28.988Z,98.21
2017-11-11T08:45:21.807Z,99.99
2017-11-11T08:46:21.765Z,99.99
2017-11-11T08:48:14.597Z,99.99
2017-11-11T08:49:14.540Z,99.99
2017-11-11T08:51:07.352Z,99.99
2017-11-11T08:52:07.319Z,96.98
2017-11-11T08:54:00.166Z,94.60
2017-11-11T08:55:00.105Z,92.23
2017-11-11T08:56:53.014Z,90.05
2017-11-11T08:57:52.869Z,88.81
2017-11-11T08:59:45.759Z,93.27
2017-11-11T09:00:45.697Z,89.00
2017-11-11T09:02:38.512Z,91.66
2017-11-11T09:03:38.467Z,95.36
2017-11-11T09:05:31.310Z,90.33
2017-11-11T09:06:31.245Z,97.55
2017-11-11T09:08:24.061Z,92.80
2017-11-11T09:09:24.023Z,90.42
2017-11-11T09:11:16.842Z,89.38
2017-11-11T09:12:16.787Z,88.71
2017-11-11T09:14:09.626Z,91.66
2017-11-11T09:15:09.593Z,92.42
2017-11-11T09:17:02.415Z,93.75
2017-11-11T09:18:02.353Z,95.17
2017-11-11T09:19:55.188Z,92.32
2017-11-11T09:20:55.158Z,92.23
2017-11-11T09:22:48.002Z,99.99
2017-11-11T09:23:47.914Z,97.27
2017-11-11T09:25:40.734Z,98.50
2017-11-11T09:26:40.674Z,99.64
2017-11-11T09:28:34.095Z,97.07
2017-11-11T09:29:33.656Z,95.27
2017-11-11T09:31:26.471Z,95.36
2017-11-11T09:32:26.461Z,94.65
2017-11-11T09:34:19.316Z,99.99
2017-11-11T09:35:19.225Z,99.69
2017-11-11T09:37:12.004Z,99.99
2017-11-11T09:38:11.987Z,99.99
2017-11-11T09:39:11.931Z,99.99
2017-11-11T09:40:11.879Z,99.99
2017-11-11T09:41:11.874Z,99.78
2017-11-11T09:42:11.802Z,99.99
2017-11-11T09:43:11.764Z,99.99
2017-11-11T09:44:11.723Z,99.99
2017-11-11T09:45:11.694Z,99.99
2017-11-11T09:46:11.648Z,99.99
2017-11-11T09:47:11.625Z,99.99
2017-11-11T09:48:11.579Z,99.99
2017-11-11T09:49:11.531Z,99.99
2017-11-11T09:50:11.489Z,99.99
2017-11-11T09:51:11.449Z,99.99
2017-11-11T09:52:11.412Z,99.99
2017-11-11T09:53:11.378Z,99.99
2017-11-11T09:54:11.332Z,99.99
2017-11-11T09:55:11.292Z,99.99
2017-11-11T09:56:11.268Z,99.99
2017-11-11T09:57:11.218Z,99.99
2017-11-11T09:58:11.175Z,99.99
2017-11-11T09:59:11.143Z,99.99
2017-11-11T10:00:11.117Z,99.99
2017-11-11T10:01:11.067Z,99.99
2017-11-11T10:02:11.023Z,99.99
2017-11-11T10:03:10.978Z,99.99
2017-11-11T10:04:10.937Z,99.99
2017-11-11T10:05:10.898Z,99.99
2017-11-11T10:06:10.859Z,99.99
2017-11-11T10:07:10.825Z,99.99
2017-11-11T10:08:10.782Z,99.99
2017-11-11T10:09:10.752Z,99.99
2017-11-11T10:10:10.705Z,99.99
2017-11-11T10:11:10.702Z,99.99
2017-11-11T10:12:10.628Z,99.99
2017-11-11T10:13:10.610Z,99.99
2017-11-11T10:14:10.545Z,99.99
2017-11-11T10:15:10.528Z,99.99
2017-11-11T10:16:10.469Z,99.99
2017-11-11T10:17:10.427Z,99.99
2017-11-11T10:18:10.402Z,99.99
2017-11-11T10:19:10.380Z,99.99
2017-11-11T10:20:10.311Z,99.99
2017-11-11T10:21:10.325Z,99.99
2017-11-11T10:22:10.235Z,99.99
2017-11-11T10:23:10.203Z,99.99
2017-11-11T10:24:10.159Z,99.99
2017-11-11T10:25:10.136Z,99.99
2017-11-11T10:26:10.081Z,99.99
2017-11-11T10:27:10.043Z,99.99
2017-11-11T10:28:09.999Z,99.99
2017-11-11T10:29:09.966Z,99.99
2017-11-11T10:30:09.929Z,99.99
2017-11-11T10:31:09.889Z,99.99
2017-11-11T10:32:09.854Z,99.99
2017-11-11T10:33:09.807Z,99.99
2017-11-11T10:34:09.788Z,99.99
2017-11-11T10:35:09.737Z,99.99
2017-11-11T10:36:09.692Z,99.99
2017-11-11T10:37:09.656Z,99.99
2017-11-11T10:38:09.629Z,99.99
2017-11-11T10:39:09.583Z,99.99
2017-11-11T10:40:09.565Z,99.99
2017-11-11T10:41:09.509Z,99.99
2017-11-11T10:42:09.464Z,99.99
2017-11-11T10:43:09.445Z,99.99
2017-11-11T10:44:09.383Z,99.99
2017-11-11T10:45:09.391Z,99.99
2017-11-11T10:46:09.356Z,99.99
2017-11-11T10:47:09.329Z,99.99
2017-11-11T10:48:09.238Z,99.99
2017-11-11T10:49:09.212Z,99.99
2017-11-11T10:50:09.194Z,99.99
2017-11-11T10:51:09.116Z,99.99
2017-11-11T10:52:09.088Z,99.99
2017-11-11T10:53:09.072Z,99.99
2017-11-11T10:54:09.055Z,99.99
2017-11-11T10:55:08.965Z,99.99
2017-11-11T10:56:08.932Z,99.99
2017-11-11T10:57:08.899Z,99.99
2017-11-11T10:58:08.863Z,98.64
2017-11-11T10:59:08.796Z,98.36
2017-11-11T11:00:08.796Z,98.17
2017-11-11T11:01:08.728Z,99.59
2017-11-11T11:02:08.686Z,99.69
2017-11-11T11:03:08.653Z,99.11
2017-11-11T11:04:08.600Z,95.12
2017-11-11T11:05:08.580Z,94.27
2017-11-11T11:06:08.537Z,95.60
2017-11-11T11:07:08.495Z,98.02
2017-11-11T11:08:08.453Z,94.27
2017-11-11T11:09:08.406Z,98.26
2017-11-11T11:10:08.401Z,98.17
2017-11-11T11:11:08.339Z,93.23
2017-11-11T11:12:08.294Z,99.88
2017-11-11T11:13:08.252Z,96.93
2017-11-11T11:14:08.276Z,98.93
2017-11-11T11:15:08.177Z,99.99
2017-11-11T11:16:08.134Z,99.21
2017-11-11T11:17:08.130Z,99.99
2017-11-11T11:18:08.059Z,97.60
2017-11-11T11:19:08.015Z,96.65
2017-11-11T11:20:07.980Z,99.21
2017-11-11T11:21:07.951Z,96.17
2017-11-11T11:22:07.899Z,99.97
2017-11-11T11:23:07.861Z,99.99
2017-11-11T11:24:07.836Z,96.17
2017-11-11T11:25:07.789Z,97.03
2017-11-11T11:26:07.754Z,96.36
2017-11-11T11:27:07.777Z,94.37
2017-11-11T11:28:07.666Z,98.83
2017-11-11T11:29:07.643Z,95.12
2017-11-11T11:30:07.590Z,94.46
2017-11-11T11:31:07.559Z,96.22
2017-11-11T11:32:07.515Z,91.99
2017-11-11T11:33:07.477Z,91.94
2017-11-11T11:34:07.430Z,89.67
2017-11-11T11:35:07.398Z,89.23
2017-11-11T11:36:07.360Z,89.38
2017-11-11T11:37:07.313Z,84.63
2017-11-11T11:38:07.276Z,83.01
2017-11-11T11:39:07.235Z,83.59
2017-11-11T11:40:07.198Z,83.06
2017-11-11T11:41:07.162Z,87.01
2017-11-11T11:42:07.127Z,83.78
2017-11-11T11:43:07.086Z,82.64
2017-11-11T11:44:07.041Z,84.53
2017-11-11T11:45:07.007Z,80.26
2017-11-11T11:46:06.970Z,82.64
2017-11-11T11:47:06.932Z,78.36
2017-11-11T11:48:06.884Z,77.41
2017-11-11T11:49:06.860Z,78.83
2017-11-11T11:50:06.833Z,79.03
2017-11-11T11:51:06.777Z,78.83
2017-11-11T11:52:06.735Z,78.64
2017-11-11T11:53:06.688Z,74.94
2017-11-11T11:54:06.660Z,74.08
2017-11-11T11:55:06.610Z,75.60
2017-11-11T11:56:06.680Z,81.21
2017-11-11T11:57:06.537Z,78.27
2017-11-11T11:58:06.524Z,78.83
2017-11-11T11:59:06.453Z,78.17
2017-11-11T12:00:06.407Z,80.07
2017-11-11T12:01:06.375Z,80.40
2017-11-11T12:02:06.330Z,83.15
2017-11-11T12:03:06.306Z,82.77
2017-11-11T12:04:06.251Z,82.10
2017-11-11T12:05:06.213Z,82.58
2017-11-11T12:06:06.186Z,84.58
2017-11-11T12:07:06.131Z,83.72
2017-11-11T12:08:06.101Z,83.15
2017-11-11T12:09:06.055Z,90.75
2017-11-11T12:10:06.015Z,90.28
2017-11-11T12:11:05.977Z,86.57
2017-11-11T12:12:05.947Z,90.75
2017-11-11T12:13:05.898Z,88.47
2017-11-11T12:14:05.864Z,87.34
2017-11-11T12:15:05.818Z,91.13
2017-11-11T12:16:05.788Z,93.99
2017-11-11T12:17:05.740Z,92.08
2017-11-11T12:18:05.701Z,96.17
2017-11-11T12:19:05.665Z,94.98
2017-11-11T12:20:05.625Z,98.74
2017-11-11T12:21:05.591Z,99.99
2017-11-11T12:22:05.578Z,99.99
2017-11-11T12:23:05.509Z,99.99
2017-11-11T12:24:05.469Z,95.75
2017-11-11T12:25:05.425Z,99.93
2017-11-11T12:26:05.405Z,95.36
2017-11-11T12:27:05.348Z,96.12
2017-11-11T12:28:05.312Z,97.93
2017-11-11T12:29:05.270Z,99.99
2017-11-11T12:30:05.235Z,99.16
2017-11-11T12:31:05.199Z,99.99
2017-11-11T12:32:05.158Z,99.99
2017-11-11T12:33:05.114Z,99.99
2017-11-11T12:34:05.085Z,99.99
2017-11-11T12:35:05.038Z,99.99
2017-11-11T12:36:04.996Z,99.99
2017-11-11T12:37:04.965Z,99.99
2017-11-11T12:38:04.921Z,99.99
2017-11-11T12:39:04.879Z,99.99
2017-11-11T12:40:04.860Z,99.99
2017-11-11T12:41:04.809Z,99.99
2017-11-11T12:42:04.771Z,99.99
2017-11-11T12:43:04.756Z,99.99
2017-11-11T12:44:04.696Z,99.99
2017-11-11T12:45:04.648Z,99.99
2017-11-11T12:46:04.632Z,99.99
2017-11-11T12:47:04.572Z,99.99
2017-11-11T12:48:04.538Z,99.99
2017-11-11T12:49:04.508Z,99.99
2017-11-11T12:50:04.462Z,99.99
2017-11-11T12:51:04.419Z,99.99
2017-11-11T12:52:04.383Z,99.99
2017-11-11T12:53:04.359Z,99.99
2017-11-11T12:54:04.324Z,99.99
2017-11-11T12:55:04.268Z,99.99
2017-11-11T12:56:04.222Z,99.99
2017-11-11T12:57:04.379Z,99.99
2017-11-11T12:58:04.190Z,99.99
2017-11-11T12:59:04.105Z,99.99
2017-11-11T13:00:04.083Z,99.99
2017-11-11T13:01:04.056Z,99.99
2017-11-11T13:02:03.995Z,99.99
2017-11-11T13:03:03.955Z,99.99
2017-11-11T13:04:03.931Z,99.99
2017-11-11T13:05:03.872Z,99.99
2017-11-11T13:06:03.833Z,99.99
2017-11-11T13:07:03.796Z,99.99
2017-11-11T13:08:03.759Z,99.99
2017-11-11T13:09:03.794Z,99.99
2017-11-11T13:10:03.684Z,99.99
2017-11-11T13:11:03.673Z,99.99
2017-11-11T13:12:03.601Z,99.99
2017-11-11T13:13:03.571Z,99.99
2017-11-11T13:14:03.532Z,99.99
2017-11-11T13:15:03.495Z,99.99
2017-11-11T13:16:03.445Z,99.99
2017-11-11T13:17:03.452Z,99.99
2017-11-11T13:18:03.370Z,99.99
2017-11-11T13:19:03.347Z,99.99
2017-11-11T13:20:03.293Z,99.99
2017-11-11T13:21:03.249Z,99.99
2017-11-11T13:22:03.216Z,99.99
2017-11-11T13:23:03.179Z,99.99
2017-11-11T13:24:03.160Z,99.99
2017-11-11T13:25:03.114Z,99.99
2017-11-11T13:26:03.070Z,99.99
2017-11-11T13:27:03.018Z,99.99
2017-11-11T13:28:02.986Z,99.99
2017-11-11T13:29:02.962Z,99.99
2017-11-11T13:30:02.904Z,99.99
2017-11-11T13:31:02.867Z,99.99
2017-11-11T13:32:02.825Z,99.99
2017-11-11T13:33:02.782Z,99.99